createdAt,value
2023-04-15T00:00:31.861Z,0
2023-04-15T00:01:32.454Z,0
2023-04-15T00:02:33.219Z,0
2023-04-15T00:03:33.949Z,0
2023-04-15T00:04:34.622Z,0
2023-04-15T00:05:35.165Z,0
2023-04-15T00:06:35.762Z,0
2023-04-15T00:07:36.375Z,0
2023-04-15T00:08:36.968Z,0
2023-04-15T00:09:37.564Z,0
2023-04-15T00:10:38.153Z,0
2023-04-15T00:11:39.319Z,0
2023-04-15T00:12:39.826Z,0
2023-04-15T00:13:40.445Z,0
2023-04-15T00:14:41.029Z,0
2023-04-15T00:15:41.624Z,0
2023-04-15T00:16:42.243Z,0
2023-04-15T00:17:42.846Z,0
2023-04-15T00:18:43.423Z,0
2023-04-15T00:19:44.024Z,0
2023-04-15T00:20:44.633Z,0
2023-04-15T00:21:45.226Z,0
2023-04-15T00:22:45.842Z,0
2023-04-15T00:23:46.439Z,0
2023-04-15T00:24:47.052Z,0
2023-04-15T00:25:47.644Z,0
2023-04-15T00:26:48.238Z,0
2023-04-15T00:27:48.835Z,0
2023-04-15T00:28:49.432Z,0
2023-04-15T00:29:50.021Z,0
2023-04-15T00:30:50.677Z,0
2023-04-15T00:31:51.223Z,0
2023-04-15T00:32:51.861Z,0
2023-04-15T00:33:52.430Z,0
2023-04-15T00:34:53.027Z,0
2023-04-15T00:35:53.627Z,0
2023-04-15T00:36:54.215Z,0
2023-04-15T00:37:54.814Z,0
2023-04-15T00:38:55.404Z,0
2023-04-15T00:39:55.999Z,0
2023-04-15T00:40:56.637Z,0
2023-04-15T00:41:57.225Z,0
2023-04-15T00:42:57.818Z,0
2023-04-15T00:43:58.428Z,0
2023-04-15T00:44:59.005Z,0
2023-04-15T00:45:59.636Z,0
2023-04-15T00:47:00.210Z,0
2023-04-15T00:48:00.956Z,0
2023-04-15T00:49:01.784Z,0
2023-04-15T00:50:02.515Z,0
2023-04-15T00:51:03.114Z,0
2023-04-15T00:52:03.709Z,0
2023-04-15T00:53:04.313Z,0
2023-04-15T00:54:04.905Z,0
2023-04-15T00:55:05.502Z,0
2023-04-15T00:56:06.092Z,0
2023-04-15T00:57:06.690Z,0
2023-04-15T00:58:07.299Z,0
2023-04-15T00:59:07.894Z,0
2023-04-15T01:00:08.488Z,0
2023-04-15T01:01:09.195Z,0
2023-04-15T01:02:09.808Z,0
2023-04-15T01:03:10.513Z,0
2023-04-15T01:04:11.100Z,0
2023-04-15T01:05:11.748Z,0
2023-04-15T01:06:12.356Z,0
2023-04-15T01:07:12.947Z,0
2023-04-15T01:08:13.543Z,0
2023-04-15T01:09:14.135Z,0
2023-04-15T01:10:14.739Z,0
2023-04-15T01:11:15.351Z,0
2023-04-15T01:12:15.953Z,0
2023-04-15T01:13:16.530Z,0
2023-04-15T01:14:17.122Z,0
2023-04-15T01:15:17.719Z,0
2023-04-15T01:16:18.357Z,0
2023-04-15T01:17:18.934Z,0
2023-04-15T01:18:19.525Z,0
2023-04-15T01:19:20.208Z,0
2023-04-15T01:20:20.799Z,0
2023-04-15T01:21:21.412Z,0
2023-04-15T01:22:22.031Z,0
2023-04-15T01:23:22.617Z,0
2023-04-15T01:24:23.214Z,0
2023-04-15T01:25:23.811Z,0
2023-04-15T01:26:24.423Z,0
2023-04-15T01:27:25.013Z,0
2023-04-15T01:28:25.606Z,0
2023-04-15T01:29:26.197Z,0
2023-04-15T01:30:26.792Z,0
2023-04-15T01:31:27.507Z,0
2023-04-15T01:32:28.102Z,0
2023-04-15T01:33:28.665Z,0
2023-04-15T01:34:29.255Z,0
2023-04-15T01:35:29.852Z,0
2023-04-15T01:36:30.446Z,0
2023-04-15T01:37:31.039Z,0
2023-04-15T01:38:31.629Z,0
2023-04-15T01:39:32.252Z,0
2023-04-15T01:40:32.831Z,0
2023-04-15T01:41:33.435Z,0
2023-04-15T01:42:34.018Z,0
2023-04-15T01:43:34.614Z,0
2023-04-15T01:44:35.208Z,0
2023-04-15T01:45:35.820Z,0
2023-04-15T01:46:36.517Z,0
2023-04-15T01:47:37.106Z,0
2023-04-15T01:48:37.653Z,0
2023-04-15T01:49:38.268Z,0
2023-04-15T01:50:38.880Z,0
2023-04-15T01:51:39.471Z,0
2023-04-15T01:52:40.075Z,0
2023-04-15T01:53:40.686Z,0
2023-04-15T01:54:41.254Z,0
2023-04-15T01:55:41.847Z,0
2023-04-15T01:56:42.473Z,0
2023-04-15T01:57:43.055Z,0
2023-04-15T01:58:43.649Z,0
2023-04-15T01:59:44.248Z,0
2023-04-15T02:00:44.863Z,0
2023-04-15T02:01:45.454Z,0
2023-04-15T02:02:46.146Z,0
2023-04-15T02:03:46.836Z,0
2023-04-15T02:04:47.363Z,0
2023-04-15T02:05:47.958Z,0
2023-04-15T02:06:48.575Z,0
2023-04-15T02:07:49.184Z,0
2023-04-15T02:08:49.776Z,0
2023-04-15T02:09:50.377Z,0
2023-04-15T02:10:50.968Z,0
2023-04-15T02:11:51.591Z,0
2023-04-15T02:12:52.200Z,0
2023-04-15T02:13:52.813Z,0
2023-04-15T02:14:53.408Z,0
2023-04-15T02:15:54.003Z,0
2023-04-15T02:16:54.643Z,0
2023-04-15T02:17:55.358Z,0
2023-04-15T02:18:55.860Z,0
2023-04-15T02:19:56.467Z,0
2023-04-15T02:20:57.051Z,0
2023-04-15T02:21:57.666Z,0
2023-04-15T02:22:58.279Z,0
2023-04-15T02:23:58.870Z,0
2023-04-15T02:24:59.467Z,0
2023-04-15T02:26:00.073Z,0
2023-04-15T02:27:00.654Z,0
2023-04-15T02:28:01.256Z,0
2023-04-15T02:29:01.951Z,0
2023-04-15T02:30:02.594Z,0
2023-04-15T02:31:03.188Z,0
2023-04-15T02:32:03.824Z,0
2023-04-15T02:33:04.395Z,0
2023-04-15T02:34:04.987Z,0
2023-04-15T02:35:05.589Z,0
2023-04-15T02:36:06.182Z,0
2023-04-15T02:37:06.770Z,0
2023-04-15T02:38:07.364Z,0
2023-04-15T02:39:07.960Z,0
2023-04-15T02:40:08.557Z,0
2023-04-15T02:41:09.152Z,0
2023-04-15T02:42:09.804Z,0
2023-04-15T02:43:10.372Z,0
2023-04-15T02:44:11.490Z,0
2023-04-15T02:45:12.119Z,0
2023-04-15T02:46:12.789Z,0
2023-04-15T02:47:13.362Z,0
2023-04-15T02:48:13.959Z,0
2023-04-15T02:49:14.555Z,0
2023-04-15T02:50:15.169Z,0
2023-04-15T02:51:15.769Z,0
2023-04-15T02:52:16.400Z,0
2023-04-15T02:53:16.976Z,0
2023-04-15T02:54:17.566Z,0
2023-04-15T02:55:18.164Z,0
2023-04-15T02:56:18.755Z,0
2023-04-15T02:57:19.359Z,0
2023-04-15T02:58:19.953Z,0
2023-04-15T02:59:20.564Z,0
2023-04-15T03:00:21.163Z,0
2023-04-15T03:01:21.792Z,0
2023-04-15T03:02:22.436Z,0
2023-04-15T03:03:23.105Z,0
2023-04-15T03:04:23.696Z,0
2023-04-15T03:05:24.284Z,0
2023-04-15T03:06:24.906Z,0
2023-04-15T03:07:25.475Z,0
2023-04-15T03:08:26.070Z,0
2023-04-15T03:09:26.688Z,0
2023-04-15T03:10:27.261Z,0
2023-04-15T03:11:27.856Z,0
2023-04-15T03:12:28.452Z,0
2023-04-15T03:13:29.046Z,0
2023-04-15T03:14:29.642Z,0
2023-04-15T03:15:30.265Z,0
2023-04-15T03:16:30.849Z,0
2023-04-15T03:17:31.464Z,0
2023-04-15T03:18:32.043Z,0
2023-04-15T03:19:32.682Z,0
2023-04-15T03:20:33.340Z,0
2023-04-15T03:21:33.996Z,0
2023-04-15T03:22:34.592Z,0
2023-04-15T03:23:35.185Z,0
2023-04-15T03:24:35.780Z,0
2023-04-15T03:25:36.377Z,0
2023-04-15T03:26:36.973Z,0
2023-04-15T03:27:37.568Z,0
2023-04-15T03:28:38.165Z,0
2023-04-15T03:29:38.761Z,0
2023-04-15T03:30:39.365Z,0
2023-04-15T03:31:40.031Z,0
2023-04-15T03:32:40.642Z,0
2023-04-15T03:33:41.221Z,0
2023-04-15T03:34:41.821Z,0
2023-04-15T03:35:42.412Z,0
2023-04-15T03:36:43.015Z,0
2023-04-15T03:37:43.612Z,0
2023-04-15T03:38:44.209Z,0
2023-04-15T03:39:44.807Z,0
2023-04-15T03:40:45.417Z,0
2023-04-15T03:41:46.024Z,0
2023-04-15T03:42:46.619Z,0
2023-04-15T03:43:47.203Z,0
2023-04-15T03:44:47.799Z,0
2023-04-15T03:45:48.415Z,0
2023-04-15T03:46:49.160Z,0
2023-04-15T03:47:49.890Z,0
2023-04-15T03:48:50.468Z,0
2023-04-15T03:49:51.059Z,0
2023-04-15T03:50:51.671Z,0
2023-04-15T03:51:52.269Z,0
2023-04-15T03:52:52.869Z,0
2023-04-15T03:53:53.460Z,0
2023-04-15T03:54:54.080Z,0
2023-04-15T03:55:54.673Z,0
2023-04-15T03:56:55.279Z,0
2023-04-15T03:57:55.865Z,0
2023-04-15T03:58:56.484Z,0
2023-04-15T03:59:57.093Z,0
2023-04-15T04:00:57.694Z,0
2023-04-15T04:01:58.512Z,0
2023-04-15T04:02:59.220Z,0
2023-04-15T04:03:59.994Z,0
2023-04-15T04:05:00.598Z,0
2023-04-15T04:06:01.195Z,0
2023-04-15T04:07:01.808Z,0
2023-04-15T04:08:02.421Z,0
2023-04-15T04:09:03.244Z,0
2023-04-15T04:10:03.961Z,0
2023-04-15T04:11:04.565Z,0
2023-04-15T04:12:05.161Z,0
2023-04-15T04:13:05.755Z,0
2023-04-15T04:14:06.354Z,0
2023-04-15T04:15:06.968Z,0
2023-04-15T04:16:07.603Z,0
2023-04-15T04:17:08.259Z,0
2023-04-15T04:18:08.816Z,0
2023-04-15T04:19:09.435Z,0
2023-04-15T04:20:10.033Z,0
2023-04-15T04:21:10.624Z,5
2023-04-15T04:22:11.220Z,5
2023-04-15T04:23:11.821Z,5
2023-04-15T04:24:12.440Z,5
2023-04-15T04:25:13.034Z,5
2023-04-15T04:26:13.633Z,5
2023-04-15T04:27:14.237Z,5
2023-04-15T04:28:14.846Z,5
2023-04-15T04:29:15.447Z,5
2023-04-15T04:30:16.040Z,5
2023-04-15T04:31:16.644Z,11
2023-04-15T04:32:17.239Z,11
2023-04-15T04:33:17.839Z,16
2023-04-15T04:34:18.438Z,16
2023-04-15T04:35:19.050Z,22
2023-04-15T04:36:19.654Z,22
2023-04-15T04:37:20.257Z,28
2023-04-15T04:38:20.865Z,28
2023-04-15T04:39:21.463Z,33
2023-04-15T04:40:22.060Z,33
2023-04-15T04:41:22.657Z,39
2023-04-15T04:42:23.254Z,39
2023-04-15T04:43:23.859Z,39
2023-04-15T04:44:24.469Z,45
2023-04-15T04:45:25.068Z,45
2023-04-15T04:46:25.666Z,45
2023-04-15T04:47:26.323Z,50
2023-04-15T04:48:26.897Z,50
2023-04-15T04:49:27.512Z,56
2023-04-15T04:50:28.110Z,56
2023-04-15T04:51:28.713Z,56
2023-04-15T04:52:29.313Z,56
2023-04-15T04:53:29.943Z,56
2023-04-15T04:54:30.554Z,50
2023-04-15T04:55:31.151Z,56
2023-04-15T04:56:31.749Z,50
2023-04-15T04:57:32.349Z,56
2023-04-15T04:58:32.950Z,61
2023-04-15T04:59:33.549Z,56
2023-04-15T05:00:34.182Z,61
2023-04-15T05:01:34.838Z,67
2023-04-15T05:02:35.532Z,61
2023-04-15T05:03:36.184Z,67
2023-04-15T05:04:36.842Z,78
2023-04-15T05:05:37.460Z,78
2023-04-15T05:06:38.080Z,78
2023-04-15T05:07:38.694Z,84
2023-04-15T05:08:40.482Z,90
2023-04-15T05:09:40.879Z,78
2023-04-15T05:10:41.472Z,78
2023-04-15T05:11:42.093Z,84
2023-04-15T05:12:42.692Z,101
2023-04-15T05:13:43.300Z,95
2023-04-15T05:14:43.916Z,95
2023-04-15T05:15:44.576Z,90
2023-04-15T05:16:45.128Z,90
2023-04-15T05:17:45.789Z,101
2023-04-15T05:18:46.356Z,95
2023-04-15T05:19:46.956Z,95
2023-04-15T05:20:47.558Z,90
2023-04-15T05:21:48.157Z,84
2023-04-15T05:22:48.773Z,84
2023-04-15T05:23:49.373Z,95
2023-04-15T05:24:49.992Z,95
2023-04-15T05:25:50.591Z,78
2023-04-15T05:26:51.192Z,84
2023-04-15T05:27:51.794Z,95
2023-04-15T05:28:52.392Z,95
2023-04-15T05:29:52.997Z,95
2023-04-15T05:30:53.604Z,95
2023-04-15T05:31:54.195Z,101
2023-04-15T05:32:54.826Z,101
2023-04-15T05:33:55.395Z,112
2023-04-15T05:34:55.996Z,101
2023-04-15T05:35:56.602Z,90
2023-04-15T05:36:57.196Z,95
2023-04-15T05:37:57.817Z,118
2023-04-15T05:38:58.561Z,101
2023-04-15T05:39:59.052Z,90
2023-04-15T05:40:59.650Z,90
2023-04-15T05:42:00.264Z,106
2023-04-15T05:43:00.852Z,101
2023-04-15T05:44:01.521Z,112
2023-04-15T05:45:02.176Z,123
2023-04-15T05:46:02.782Z,101
2023-04-15T05:47:03.342Z,101
2023-04-15T05:48:03.945Z,118
2023-04-15T05:49:04.563Z,112
2023-04-15T05:50:05.189Z,101
2023-04-15T05:51:05.784Z,101
2023-04-15T05:52:06.392Z,101
2023-04-15T05:53:07.001Z,135
2023-04-15T05:54:07.608Z,123
2023-04-15T05:55:08.213Z,112
2023-04-15T05:56:08.811Z,140
2023-04-15T05:57:09.405Z,140
2023-04-15T05:58:10.005Z,151
2023-04-15T05:59:10.607Z,151
2023-04-15T06:00:11.227Z,151
2023-04-15T06:01:11.830Z,168
2023-04-15T06:02:12.460Z,157
2023-04-15T06:03:13.082Z,146
2023-04-15T06:04:13.792Z,135
2023-04-15T06:05:14.377Z,140
2023-04-15T06:06:14.979Z,151
2023-04-15T06:07:15.607Z,151
2023-04-15T06:08:16.203Z,163
2023-04-15T06:09:16.824Z,168
2023-04-15T06:10:17.420Z,174
2023-04-15T06:11:18.022Z,174
2023-04-15T06:12:18.622Z,180
2023-04-15T06:13:19.225Z,208
2023-04-15T06:14:19.861Z,185
2023-04-15T06:15:20.516Z,196
2023-04-15T06:16:21.093Z,213
2023-04-15T06:17:21.679Z,191
2023-04-15T06:18:22.284Z,191
2023-04-15T06:19:22.892Z,219
2023-04-15T06:20:23.498Z,213
2023-04-15T06:21:24.097Z,213
2023-04-15T06:22:24.696Z,202
2023-04-15T06:23:26.420Z,236
2023-04-15T06:24:26.897Z,213
2023-04-15T06:25:27.510Z,208
2023-04-15T06:26:28.120Z,208
2023-04-15T06:27:28.731Z,236
2023-04-15T06:28:29.348Z,275
2023-04-15T06:29:29.976Z,219
2023-04-15T06:30:30.587Z,196
2023-04-15T06:31:31.221Z,202
2023-04-15T06:32:31.847Z,196
2023-04-15T06:33:32.442Z,208
2023-04-15T06:34:33.037Z,230
2023-04-15T06:35:33.659Z,247
2023-04-15T06:36:34.260Z,230
2023-04-15T06:37:34.879Z,219
2023-04-15T06:38:35.476Z,219
2023-04-15T06:39:36.078Z,219
2023-04-15T06:40:36.673Z,230
2023-04-15T06:41:37.280Z,236
2023-04-15T06:42:37.876Z,236
2023-04-15T06:43:38.476Z,230
2023-04-15T06:44:39.076Z,202
2023-04-15T06:45:39.692Z,185
2023-04-15T06:46:40.274Z,191
2023-04-15T06:47:40.956Z,185
2023-04-15T06:48:41.503Z,191
2023-04-15T06:49:42.107Z,208
2023-04-15T06:50:42.702Z,225
2023-04-15T06:51:43.357Z,196
2023-04-15T06:52:43.923Z,185
2023-04-15T06:53:44.525Z,196
2023-04-15T06:54:45.128Z,196
2023-04-15T06:55:45.748Z,196
2023-04-15T06:56:46.369Z,196
2023-04-15T06:57:46.970Z,219
2023-04-15T06:58:47.566Z,219
2023-04-15T06:59:48.189Z,225
2023-04-15T07:00:48.803Z,230
2023-04-15T07:01:49.427Z,236
2023-04-15T07:02:50.035Z,219
2023-04-15T07:03:50.646Z,202
2023-04-15T07:04:51.192Z,191
2023-04-15T07:05:51.828Z,196
2023-04-15T07:06:52.450Z,219
2023-04-15T07:07:53.030Z,202
2023-04-15T07:08:53.630Z,236
2023-04-15T07:09:54.235Z,213
2023-04-15T07:10:54.833Z,208
2023-04-15T07:11:55.441Z,236
2023-04-15T07:12:56.060Z,275
2023-04-15T07:13:56.661Z,264
2023-04-15T07:14:57.252Z,230
2023-04-15T07:15:57.854Z,219
2023-04-15T07:16:58.539Z,208
2023-04-15T07:17:59.134Z,225
2023-04-15T07:19:00.002Z,264
2023-04-15T07:20:00.800Z,281
2023-04-15T07:21:01.402Z,236
2023-04-15T07:22:02.003Z,247
2023-04-15T07:23:02.603Z,241
2023-04-15T07:24:03.223Z,247
2023-04-15T07:25:03.825Z,253
2023-04-15T07:26:04.423Z,275
2023-04-15T07:27:05.023Z,331
2023-04-15T07:28:05.621Z,382
2023-04-15T07:29:06.225Z,393
2023-04-15T07:30:06.826Z,303
2023-04-15T07:31:07.471Z,326
2023-04-15T07:32:08.030Z,326
2023-04-15T07:33:08.629Z,309
2023-04-15T07:34:09.237Z,343
2023-04-15T07:35:09.862Z,376
2023-04-15T07:36:10.451Z,360
2023-04-15T07:37:11.051Z,382
2023-04-15T07:38:11.654Z,360
2023-04-15T07:39:12.274Z,382
2023-04-15T07:40:12.855Z,371
2023-04-15T07:41:13.481Z,376
2023-04-15T07:42:14.081Z,376
2023-04-15T07:43:14.678Z,371
2023-04-15T07:44:15.280Z,360
2023-04-15T07:45:15.901Z,326
2023-04-15T07:46:16.617Z,360
2023-04-15T07:47:17.147Z,371
2023-04-15T07:48:17.791Z,382
2023-04-15T07:49:18.381Z,360
2023-04-15T07:50:18.980Z,354
2023-04-15T07:51:19.599Z,371
2023-04-15T07:52:20.230Z,393
2023-04-15T07:53:20.833Z,399
2023-04-15T07:54:21.451Z,348
2023-04-15T07:55:22.055Z,292
2023-04-15T07:56:22.657Z,292
2023-04-15T07:57:23.249Z,337
2023-04-15T07:58:23.852Z,343
2023-04-15T07:59:24.477Z,421
2023-04-15T08:00:25.079Z,405
2023-04-15T08:01:25.685Z,382
2023-04-15T08:02:26.538Z,376
2023-04-15T08:03:27.408Z,371
2023-04-15T08:04:28.235Z,433
2023-04-15T08:05:28.832Z,405
2023-04-15T08:06:29.435Z,376
2023-04-15T08:07:30.033Z,354
2023-04-15T08:08:30.634Z,354
2023-04-15T08:09:31.236Z,343
2023-04-15T08:10:31.839Z,326
2023-04-15T08:11:32.456Z,388
2023-04-15T08:12:33.060Z,376
2023-04-15T08:13:33.666Z,343
2023-04-15T08:14:34.285Z,399
2023-04-15T08:15:34.899Z,455
2023-04-15T08:16:35.551Z,455
2023-04-15T08:17:36.176Z,438
2023-04-15T08:18:36.745Z,472
2023-04-15T08:19:37.365Z,466
2023-04-15T08:20:37.992Z,450
2023-04-15T08:21:38.590Z,500
2023-04-15T08:22:39.213Z,410
2023-04-15T08:23:39.814Z,382
2023-04-15T08:24:40.421Z,450
2023-04-15T08:25:41.019Z,433
2023-04-15T08:26:41.642Z,427
2023-04-15T08:27:42.264Z,365
2023-04-15T08:28:42.865Z,337
2023-04-15T08:29:43.464Z,309
2023-04-15T08:30:44.069Z,343
2023-04-15T08:31:44.757Z,309
2023-04-15T08:32:45.394Z,315
2023-04-15T08:33:45.954Z,303
2023-04-15T08:34:46.558Z,303
2023-04-15T08:35:47.159Z,292
2023-04-15T08:36:47.757Z,315
2023-04-15T08:37:48.359Z,315
2023-04-15T08:38:48.961Z,315
2023-04-15T08:39:49.589Z,331
2023-04-15T08:40:50.189Z,343
2023-04-15T08:41:51.172Z,286
2023-04-15T08:42:51.779Z,309
2023-04-15T08:43:52.391Z,315
2023-04-15T08:44:52.998Z,281
2023-04-15T08:45:53.593Z,253
2023-04-15T08:46:54.244Z,258
2023-04-15T08:47:54.881Z,241
2023-04-15T08:48:55.534Z,247
2023-04-15T08:49:56.090Z,230
2023-04-15T08:50:56.699Z,230
2023-04-15T08:51:57.292Z,236
2023-04-15T08:52:57.893Z,264
2023-04-15T08:53:58.503Z,264
2023-04-15T08:54:59.104Z,270
2023-04-15T08:55:59.719Z,270
2023-04-15T08:57:00.329Z,275
2023-04-15T08:58:00.924Z,292
2023-04-15T08:59:01.794Z,281
2023-04-15T09:00:03.834Z,270
2023-04-15T09:01:04.180Z,275
2023-04-15T09:02:04.808Z,270
2023-04-15T09:03:05.461Z,270
2023-04-15T09:04:06.089Z,264
2023-04-15T09:05:06.701Z,247
2023-04-15T09:06:07.279Z,253
2023-04-15T09:07:07.875Z,286
2023-04-15T09:08:08.531Z,258
2023-04-15T09:09:09.127Z,270
2023-04-15T09:10:09.726Z,253
2023-04-15T09:11:10.334Z,298
2023-04-15T09:12:10.946Z,315
2023-04-15T09:13:11.551Z,303
2023-04-15T09:14:12.202Z,337
2023-04-15T09:15:12.823Z,292
2023-04-15T09:16:13.469Z,258
2023-04-15T09:17:14.067Z,236
2023-04-15T09:18:14.667Z,213
2023-04-15T09:19:15.258Z,236
2023-04-15T09:20:15.861Z,247
2023-04-15T09:21:16.474Z,281
2023-04-15T09:22:17.063Z,225
2023-04-15T09:23:17.709Z,208
2023-04-15T09:24:18.283Z,196
2023-04-15T09:25:18.884Z,213
2023-04-15T09:26:19.481Z,208
2023-04-15T09:27:20.084Z,196
2023-04-15T09:28:20.684Z,202
2023-04-15T09:29:21.289Z,219
2023-04-15T09:30:21.897Z,202
2023-04-15T09:31:22.576Z,185
2023-04-15T09:32:23.166Z,247
2023-04-15T09:33:23.752Z,230
2023-04-15T09:34:24.350Z,241
2023-04-15T09:35:24.953Z,202
2023-04-15T09:36:25.555Z,196
2023-04-15T09:37:32.452Z,213
2023-04-15T09:38:27.748Z,185
2023-04-15T09:39:28.350Z,208
2023-04-15T09:40:28.951Z,213
2023-04-15T09:41:29.554Z,213
2023-04-15T09:42:30.163Z,202
2023-04-15T09:43:30.762Z,191
2023-04-15T09:44:31.360Z,236
2023-04-15T09:45:31.979Z,213
2023-04-15T09:46:32.702Z,219
2023-04-15T09:47:33.353Z,241
2023-04-15T09:48:33.947Z,281
2023-04-15T09:49:34.588Z,253
2023-04-15T09:50:35.148Z,281
2023-04-15T09:51:35.750Z,315
2023-04-15T09:52:36.351Z,298
2023-04-15T09:53:36.950Z,315
2023-04-15T09:54:37.554Z,331
2023-04-15T09:55:38.173Z,320
2023-04-15T09:56:38.790Z,371
2023-04-15T09:57:39.386Z,348
2023-04-15T09:58:40.002Z,360
2023-04-15T09:59:40.626Z,348
2023-04-15T10:00:41.202Z,360
2023-04-15T10:01:41.834Z,388
2023-04-15T10:02:42.573Z,410
2023-04-15T10:03:43.315Z,388
2023-04-15T10:04:43.922Z,399
2023-04-15T10:05:44.525Z,365
2023-04-15T10:06:45.125Z,393
2023-04-15T10:07:45.758Z,343
2023-04-15T10:08:46.326Z,337
2023-04-15T10:09:46.935Z,393
2023-04-15T10:10:47.529Z,360
2023-04-15T10:11:48.133Z,343
2023-04-15T10:12:48.759Z,337
2023-04-15T10:13:49.374Z,343
2023-04-15T10:14:49.983Z,348
2023-04-15T10:15:50.613Z,354
2023-04-15T10:16:51.179Z,354
2023-04-15T10:17:51.831Z,376
2023-04-15T10:18:52.397Z,337
2023-04-15T10:19:53.003Z,354
2023-04-15T10:20:53.599Z,348
2023-04-15T10:21:54.198Z,343
2023-04-15T10:22:54.805Z,303
2023-04-15T10:23:55.404Z,326
2023-04-15T10:24:56.053Z,315
2023-04-15T10:25:56.624Z,275
2023-04-15T10:26:57.241Z,286
2023-04-15T10:27:57.825Z,281
2023-04-15T10:28:59.021Z,258
2023-04-15T10:30:00.031Z,264
2023-04-15T10:31:00.646Z,253
2023-04-15T10:32:01.224Z,298
2023-04-15T10:33:01.978Z,281
2023-04-15T10:34:02.575Z,281
2023-04-15T10:35:03.249Z,264
2023-04-15T10:36:03.852Z,219
2023-04-15T10:37:04.463Z,219
2023-04-15T10:38:05.075Z,241
2023-04-15T10:39:05.679Z,236
2023-04-15T10:40:06.297Z,286
2023-04-15T10:41:06.897Z,230
2023-04-15T10:42:07.511Z,331
2023-04-15T10:43:08.115Z,303
2023-04-15T10:44:08.715Z,286
2023-04-15T10:45:09.315Z,253
2023-04-15T10:46:09.968Z,292
2023-04-15T10:47:10.529Z,208
2023-04-15T10:48:11.149Z,225
2023-04-15T10:49:11.727Z,208
2023-04-15T10:50:12.359Z,247
2023-04-15T10:51:12.946Z,236
2023-04-15T10:52:13.549Z,270
2023-04-15T10:53:14.147Z,253
2023-04-15T10:54:14.742Z,275
2023-04-15T10:55:15.344Z,230
2023-04-15T10:56:15.958Z,196
2023-04-15T10:57:16.553Z,168
2023-04-15T10:58:17.146Z,219
2023-04-15T10:59:17.762Z,213
2023-04-15T11:00:18.347Z,191
2023-04-15T11:01:18.974Z,174
2023-04-15T11:02:19.717Z,157
2023-04-15T11:03:20.332Z,174
2023-04-15T11:04:21.030Z,213
2023-04-15T11:05:21.589Z,191
2023-04-15T11:06:22.183Z,180
2023-04-15T11:07:22.784Z,163
2023-04-15T11:08:23.386Z,191
2023-04-15T11:09:23.983Z,174
2023-04-15T11:10:24.583Z,202
2023-04-15T11:11:25.208Z,219
2023-04-15T11:12:25.830Z,213
2023-04-15T11:13:26.448Z,241
2023-04-15T11:14:27.051Z,241
2023-04-15T11:15:27.646Z,247
2023-04-15T11:16:28.272Z,219
2023-04-15T11:17:28.949Z,236
2023-04-15T11:18:29.472Z,236
2023-04-15T11:19:30.070Z,236
2023-04-15T11:20:30.697Z,191
2023-04-15T11:21:31.297Z,174
2023-04-15T11:22:31.899Z,174
2023-04-15T11:23:32.516Z,185
2023-04-15T11:24:33.125Z,185
2023-04-15T11:25:33.727Z,180
2023-04-15T11:26:34.343Z,146
2023-04-15T11:27:34.960Z,129
2023-04-15T11:28:36.761Z,135
2023-04-15T11:29:37.152Z,151
2023-04-15T11:30:37.770Z,146
2023-04-15T11:31:38.409Z,168
2023-04-15T11:32:39.019Z,157
2023-04-15T11:33:39.593Z,151
2023-04-15T11:34:40.189Z,151
2023-04-15T11:35:40.786Z,151
2023-04-15T11:36:41.389Z,140
2023-04-15T11:37:41.994Z,151
2023-04-15T11:38:42.609Z,163
2023-04-15T11:39:43.208Z,168
2023-04-15T11:40:46.108Z,151
2023-04-15T11:41:44.447Z,168
2023-04-15T11:42:50.009Z,168
2023-04-15T11:43:46.644Z,163
2023-04-15T11:44:47.244Z,151
2023-04-15T11:45:47.897Z,163
2023-04-15T11:46:48.476Z,163
2023-04-15T11:47:49.113Z,174
2023-04-15T11:48:49.782Z,157
2023-04-15T11:49:50.304Z,151
2023-04-15T11:50:50.906Z,146
2023-04-15T11:51:51.507Z,151
2023-04-15T11:52:52.129Z,163
2023-04-15T11:53:52.728Z,146
2023-04-15T11:54:53.330Z,151
2023-04-15T11:55:53.941Z,146
2023-04-15T11:56:54.549Z,151
2023-04-15T11:57:55.166Z,163
2023-04-15T11:58:55.765Z,151
2023-04-15T11:59:56.360Z,168
2023-04-15T12:00:57.058Z,163
2023-04-15T12:01:57.640Z,168
2023-04-15T12:02:58.320Z,174
2023-04-15T12:03:59.034Z,168
2023-04-15T12:04:59.691Z,180
2023-04-15T12:06:00.256Z,174
2023-04-15T12:07:00.876Z,185
2023-04-15T12:08:01.481Z,180
2023-04-15T12:09:02.084Z,208
2023-04-15T12:10:02.686Z,180
2023-04-15T12:11:03.281Z,168
2023-04-15T12:12:03.895Z,174
2023-04-15T12:13:04.505Z,191
2023-04-15T12:14:05.336Z,196
2023-04-15T12:15:06.101Z,191
2023-04-15T12:16:06.743Z,191
2023-04-15T12:17:07.321Z,202
2023-04-15T12:18:07.983Z,196
2023-04-15T12:19:08.572Z,202
2023-04-15T12:20:09.171Z,219
2023-04-15T12:21:09.772Z,213
2023-04-15T12:22:10.368Z,219
2023-04-15T12:23:10.968Z,213
2023-04-15T12:24:11.567Z,219
2023-04-15T12:25:12.172Z,191
2023-04-15T12:26:12.793Z,174
2023-04-15T12:27:13.393Z,185
2023-04-15T12:28:14.024Z,180
2023-04-15T12:29:14.610Z,180
2023-04-15T12:30:15.211Z,191
2023-04-15T12:31:15.844Z,213
2023-04-15T12:32:16.419Z,225
2023-04-15T12:33:17.063Z,213
2023-04-15T12:34:17.646Z,225
2023-04-15T12:35:18.239Z,219
2023-04-15T12:36:18.848Z,208
2023-04-15T12:37:19.466Z,213
2023-04-15T12:38:20.063Z,230
2023-04-15T12:39:20.690Z,258
2023-04-15T12:40:21.305Z,270
2023-04-15T12:41:21.928Z,292
2023-04-15T12:42:22.531Z,303
2023-04-15T12:43:23.127Z,320
2023-04-15T12:44:23.732Z,331
2023-04-15T12:45:24.357Z,309
2023-04-15T12:46:24.979Z,292
2023-04-15T12:47:25.599Z,298
2023-04-15T12:48:26.199Z,286
2023-04-15T12:49:26.801Z,309
2023-04-15T12:50:27.420Z,303
2023-04-15T12:51:28.039Z,298
2023-04-15T12:52:28.643Z,326
2023-04-15T12:53:29.245Z,337
2023-04-15T12:54:29.865Z,320
2023-04-15T12:55:30.468Z,320
2023-04-15T12:56:31.083Z,298
2023-04-15T12:57:31.685Z,286
2023-04-15T12:58:32.285Z,303
2023-04-15T12:59:32.889Z,298
2023-04-15T13:00:33.489Z,331
2023-04-15T13:01:34.128Z,281
2023-04-15T13:02:35.014Z,275
2023-04-15T13:03:35.966Z,253
2023-04-15T13:04:36.714Z,253
2023-04-15T13:05:37.245Z,270
2023-04-15T13:06:37.847Z,241
2023-04-15T13:07:38.451Z,241
2023-04-15T13:08:42.714Z,258
2023-04-15T13:09:39.660Z,264
2023-04-15T13:10:40.261Z,247
2023-04-15T13:11:40.931Z,241
2023-04-15T13:12:41.479Z,225
2023-04-15T13:13:42.106Z,219
2023-04-15T13:14:42.702Z,241
2023-04-15T13:15:43.427Z,219
2023-04-15T13:16:44.027Z,213
2023-04-15T13:17:44.693Z,196
2023-04-15T13:18:45.251Z,196
2023-04-15T13:19:45.843Z,185
2023-04-15T13:20:46.451Z,185
2023-04-15T13:21:47.060Z,168
2023-04-15T13:22:47.683Z,168
2023-04-15T13:23:48.285Z,163
2023-04-15T13:24:48.887Z,157
2023-04-15T13:25:49.487Z,146
2023-04-15T13:26:50.516Z,151
2023-04-15T13:27:50.703Z,146
2023-04-15T13:28:51.346Z,157
2023-04-15T13:29:51.954Z,146
2023-04-15T13:30:52.547Z,157
2023-04-15T13:31:53.183Z,168
2023-04-15T13:32:53.802Z,151
2023-04-15T13:33:54.385Z,151
2023-04-15T13:34:54.987Z,146
2023-04-15T13:35:55.586Z,140
2023-04-15T13:36:56.186Z,140
2023-04-15T13:37:56.789Z,140
2023-04-15T13:38:57.391Z,140
2023-04-15T13:39:57.996Z,146
2023-04-15T13:40:58.604Z,151
2023-04-15T13:41:59.211Z,163
2023-04-15T13:42:59.803Z,174
2023-04-15T13:44:00.412Z,180
2023-04-15T13:45:01.005Z,196
2023-04-15T13:46:01.759Z,196
2023-04-15T13:47:02.371Z,185
2023-04-15T13:48:02.984Z,196
2023-04-15T13:49:03.588Z,185
2023-04-15T13:50:04.191Z,180
2023-04-15T13:51:04.786Z,185
2023-04-15T13:52:05.392Z,196
2023-04-15T13:53:05.992Z,208
2023-04-15T13:54:06.736Z,191
2023-04-15T13:55:18.100Z,157
2023-04-15T13:56:09.042Z,151
2023-04-15T13:57:09.663Z,157
2023-04-15T13:58:10.288Z,163
2023-04-15T13:59:10.899Z,157
2023-04-15T14:00:11.511Z,151
2023-04-15T14:01:12.173Z,157
2023-04-15T14:02:12.859Z,185
2023-04-15T14:03:13.650Z,208
2023-04-15T14:04:14.540Z,213
2023-04-15T14:05:14.905Z,202
2023-04-15T14:06:15.505Z,213
2023-04-15T14:07:16.110Z,230
2023-04-15T14:08:16.726Z,264
2023-04-15T14:09:17.327Z,264
2023-04-15T14:10:17.928Z,264
2023-04-15T14:11:18.529Z,270
2023-04-15T14:12:19.146Z,264
2023-04-15T14:13:19.812Z,258
2023-04-15T14:14:20.346Z,230
2023-04-15T14:15:20.948Z,196